Time;durP1;ratioP1;P1;durP2;ratioP2;P2;SDS_P1;SDS_P2;PMS_P1;PMS_P2;Temp;Humidity;BMP_temperature;BMP_pressure;BME280_temperature;BME280_humidity;BME280_pressure;Samples;Min_cycle;Max_cycle;Signal;HPM_P1;HPM_P2
2022/05/18 00:01:30;;;;;;;;;3.75;3.75;;;;;25.60;47.73;101450.66;5051493;28;45314;-64
2022/05/18 00:03:55;;;;;;;;;6.00;5.75;;;;;25.55;47.77;101442.19;5055681;28;48007;-63
2022/05/18 00:06:21;;;;;;;;;8.25;7.00;;;;;25.46;48.48;101454.44;5046041;28;45173;-64
2022/05/18 00:08:46;;;;;;;;;6.00;6.00;;;;;25.33;49.44;101458.16;5047658;28;45342;-64
2022/05/18 00:11:16;;;;;;;;;9.75;5.75;;;;;25.25;48.93;101456.13;5050260;28;46090;-65
2022/05/18 00:13:45;;;;;;;;;7.00;5.50;;;;;25.20;49.08;101458.25;5050213;28;46417;-66
2022/05/18 00:16:12;;;;;;;;;6.50;6.50;;;;;25.13;49.52;101459.72;5050537;28;45511;-64
2022/05/18 00:18:37;;;;;;;;;8.25;7.00;;;;;25.05;50.59;101462.97;5038924;28;45436;-64
2022/05/18 00:21:05;;;;;;;;;6.50;6.50;;;;;25.04;49.82;101460.44;5047155;28;45491;-64
2022/05/18 00:23:31;;;;;;;;;7.50;7.00;;;;;25.01;49.86;101463.31;5048066;28;47076;-64
2022/05/18 00:25:56;;;;;;;;;4.00;3.00;;;;;24.95;50.93;101467.25;5046422;28;45898;-63
2022/05/18 00:28:23;;;;;;;;;9.00;7.75;;;;;24.87;53.30;101465.19;5045998;28;45544;-65
2022/05/18 00:30:48;;;;;;;;;9.00;9.00;;;;;24.74;54.11;101466.22;5044724;28;45531;-64
2022/05/18 00:33:14;;;;;;;;;9.00;7.00;;;;;24.60;55.50;101469.06;5034355;28;46216;-64
2022/05/18 00:35:41;;;;;;;;;7.25;7.25;;;;;24.46;56.69;101476.28;5039038;28;45568;-64
2022/05/18 00:38:08;;;;;;;;;8.00;8.00;;;;;24.36;55.78;101477.06;5043652;28;45238;-63
2022/05/18 00:40:36;;;;;;;;;11.75;8.50;;;;;24.24;58.21;101492.06;5039058;28;45496;-64
2022/05/18 00:43:02;;;;;;;;;9.00;6.75;;;;;24.07;58.97;101487.13;5040595;28;46578;-65
2022/05/18 00:45:28;;;;;;;;;8.50;7.00;;;;;23.96;59.33;101490.53;5038378;28;45276;-65
2022/05/18 00:47:53;;;;;;;;;7.75;6.00;;;;;23.86;58.06;101485.06;5040143;28;45411;-64
2022/05/18 00:50:27;;;;;;;;;7.25;5.50;;;;;23.81;59.32;101483.66;5047288;28;45575;-65
2022/05/18 00:53:03;;;;;;;;;7.00;6.00;;;;;23.78;58.30;101492.69;5040586;28;46535;-65
2022/05/18 00:55:33;;;;;;;;;9.25;7.00;;;;;23.80;58.17;101496.09;5040658;28;45859;-64
2022/05/18 00:58:27;;;;;;;;;5.50;5.50;;;;;23.75;58.97;101492.91;5040092;28;46719;-63
2022/05/18 01:00:53;;;;;;;;;6.25;5.00;;;;;23.71;59.27;101499.41;5024964;28;45451;-64
2022/05/18 01:03:23;;;;;;;;;3.50;3.50;;;;;23.66;59.36;101505.06;5041250;28;46328;-64
2022/05/18 01:05:53;;;;;;;;;6.75;5.25;;;;;23.58;61.15;101504.72;5047795;28;45958;-65
2022/05/18 01:08:43;;;;;;;;;7.00;5.75;;;;;23.49;60.44;101509.81;5046396;28;45264;-65
2022/05/18 01:11:09;;;;;;;;;7.00;7.00;;;;;23.42;61.26;101511.16;5050408;28;45283;-65
2022/05/18 01:13:34;;;;;;;;;9.75;6.00;;;;;23.38;60.74;101522.00;5051748;28;45690;-65
2022/05/18 01:15:59;;;;;;;;;9.00;7.50;;;;;23.36;60.72;101510.63;5047776;28;46536;-65
2022/05/18 01:18:25;;;;;;;;;7.75;6.50;;;;;23.38;60.30;101518.50;5047495;28;45603;-65
2022/05/18 01:20:51;;;;;;;;;8.50;8.50;;;;;23.38;60.72;101516.69;5047991;28;45340;-65
2022/05/18 01:23:38;;;;;;;;;7.50;6.25;;;;;23.36;60.99;101515.09;5040429;28;46145;-65
2022/05/18 01:26:16;;;;;;;;;8.25;6.50;;;;;23.32;60.95;101511.81;5033700;28;45478;-65
2022/05/18 01:28:53;;;;;;;;;5.00;5.00;;;;;23.29;62.45;101522.63;5038903;28;45666;-65
2022/05/18 01:31:36;;;;;;;;;5.75;5.25;;;;;23.27;63.01;101529.84;5047304;28;45519;-65
2022/05/18 01:34:02;;;;;;;;;8.25;7.00;;;;;23.18;61.58;101526.97;5045393;28;46629;-65
2022/05/18 01:36:27;;;;;;;;;5.75;5.00;;;;;23.09;62.05;101517.84;5038650;28;45500;-65
2022/05/18 01:38:52;;;;;;;;;4.25;4.00;;;;;23.06;61.79;101523.34;5039542;28;45450;-65
2022/05/18 01:41:21;;;;;;;;;7.75;7.75;;;;;23.05;63.38;101529.59;5043226;28;45178;-65
2022/05/18 01:43:54;;;;;;;;;8.50;7.00;;;;;22.97;63.65;101522.16;5037460;28;45613;-65
2022/05/18 01:46:21;;;;;;;;;9.50;6.50;;;;;22.93;64.11;101531.25;5038642;28;45379;-65
2022/05/18 01:48:52;;;;;;;;;7.50;6.00;;;;;22.87;65.75;101538.78;5039441;28;45284;-65
2022/05/18 01:51:34;;;;;;;;;7.25;7.25;;;;;22.69;67.45;101536.34;5037771;28;45446;-66
2022/05/18 01:54:00;;;;;;;;;6.50;6.50;;;;;22.61;65.51;101535.13;5042228;28;46533;-65
2022/05/18 01:56:25;;;;;;;;;9.00;8.00;;;;;22.52;66.00;101541.06;5043212;28;45457;-65
2022/05/18 01:58:51;;;;;;;;;6.00;6.00;;;;;22.45;68.16;101540.63;5051966;28;45499;-64
2022/05/18 02:01:16;;;;;;;;;8.00;7.25;;;;;22.37;67.32;101532.28;5045983;28;45577;-65
2022/05/18 02:03:42;;;;;;;;;6.00;4.50;;;;;22.28;68.18;101533.75;5047343;28;45514;-65
2022/05/18 02:06:07;;;;;;;;;8.75;7.00;;;;;22.19;67.25;101544.91;5048744;28;45644;-65
2022/05/18 02:08:33;;;;;;;;;7.75;6.00;;;;;22.14;68.93;101544.34;5039090;28;45289;-65
2022/05/18 02:10:58;;;;;;;;;8.50;6.25;;;;;22.07;68.88;101561.56;5055398;28;45219;-65
2022/05/18 02:13:24;;;;;;;;;7.50;7.00;;;;;21.97;69.64;101569.19;5046128;28;46182;-65
2022/05/18 02:15:49;;;;;;;;;7.50;7.00;;;;;21.93;69.15;101572.97;5048172;28;45271;-65
2022/05/18 02:18:15;;;;;;;;;8.75;7.50;;;;;21.91;71.43;101577.53;5047498;28;45524;-65
2022/05/18 02:20:41;;;;;;;;;8.25;8.00;;;;;21.89;71.12;101574.13;5046851;28;45209;-65
2022/05/18 02:23:07;;;;;;;;;8.25;6.00;;;;;21.86;69.10;101579.59;5053161;28;48199;-65
2022/05/18 02:25:33;;;;;;;;;6.75;6.00;;;;;21.83;70.12;101585.09;5047780;28;45538;-65
2022/05/18 02:27:59;;;;;;;;;9.00;7.00;;;;;21.73;70.59;101586.56;5053326;28;45502;-65
2022/05/18 02:30:25;;;;;;;;;6.50;6.50;;;;;21.71;69.61;101585.81;5045433;28;45517;-65
2022/05/18 02:32:50;;;;;;;;;9.00;7.00;;;;;21.70;70.11;101584.97;5042646;28;47082;-64
2022/05/18 02:35:16;;;;;;;;;6.00;6.00;;;;;21.65;71.09;101602.06;5054320;28;45485;-65
2022/05/18 02:37:41;;;;;;;;;7.50;6.00;;;;;21.55;70.52;101612.34;5040458;28;45396;-64
2022/05/18 02:40:09;;;;;;;;;4.50;4.00;;;;;21.46;70.21;101603.16;5060555;28;45598;-65
2022/05/18 02:42:34;;;;;;;;;5.25;5.25;;;;;21.38;69.99;101604.53;5042025;28;45411;-64
2022/05/18 02:45:00;;;;;;;;;5.00;5.00;;;;;21.34;70.30;101608.31;5042239;28;45220;-65
2022/05/18 02:47:26;;;;;;;;;6.50;4.75;;;;;21.21;70.80;101611.63;5038611;28;45430;-64
2022/05/18 02:49:51;;;;;;;;;6.25;4.50;;;;;21.05;70.97;101602.91;5043397;28;46930;-64
2022/05/18 02:52:17;;;;;;;;;4.00;3.75;;;;;20.97;70.72;101605.13;5039640;28;46527;-65
2022/05/18 02:57:27;;;;;;;;;5.50;5.50;;;;;20.80;71.28;101616.66;5045285;28;45826;-65
2022/05/18 02:59:52;;;;;;;;;4.00;4.00;;;;;20.66;71.87;101619.22;5041875;28;45311;-66
2022/05/18 03:02:18;;;;;;;;;4.25;4.00;;;;;20.59;71.22;101618.69;5040584;28;47249;-65
2022/05/18 03:04:43;;;;;;;;;4.50;3.25;;;;;20.54;70.89;101617.25;5041094;28;45334;-65
2022/05/18 03:07:08;;;;;;;;;3.50;2.75;;;;;20.51;70.45;101615.63;5043735;28;45444;-64
2022/05/18 03:09:34;;;;;;;;;1.50;1.50;;;;;20.48;70.86;101609.69;5040035;28;45295;-65
2022/05/18 03:11:59;;;;;;;;;6.75;3.50;;;;;20.43;71.55;101611.72;5042451;28;46433;-65
2022/05/18 03:14:25;;;;;;;;;1.25;1.25;;;;;20.45;70.23;101618.63;5054208;28;45416;-65
2022/05/18 03:16:52;;;;;;;;;3.00;3.00;;;;;20.50;69.72;101618.38;5041968;28;45446;-65
2022/05/18 03:19:17;;;;;;;;;2.75;1.75;;;;;20.46;70.06;101628.25;5052026;28;45549;-65
2022/05/18 03:24:27;;;;;;;;;4.50;3.00;;;;;20.34;69.85;101626.22;5036953;28;45614;-64
2022/05/18 03:26:53;;;;;;;;;2.00;2.00;;;;;20.29;69.54;101631.75;5040672;28;45360;-66
2022/05/18 03:29:18;;;;;;;;;5.00;3.00;;;;;20.25;69.08;101634.66;5041826;28;45468;-65
2022/05/18 03:31:46;;;;;;;;;2.00;1.75;;;;;20.18;69.33;101641.19;5044306;28;45925;-65
2022/05/18 03:34:11;;;;;;;;;1.50;1.50;;;;;20.13;69.57;101632.66;5060500;28;45607;-66
2022/05/18 03:36:37;;;;;;;;;6.00;3.00;;;;;20.11;69.05;101631.91;5045452;28;45410;-65
2022/05/18 03:39:03;;;;;;;;;3.25;3.25;;;;;20.09;69.65;101645.16;5041374;28;45436;-65
2022/05/18 03:41:29;;;;;;;;;3.00;3.00;;;;;20.07;69.91;101648.81;5046414;28;48353;-65
2022/05/18 03:43:55;;;;;;;;;3.25;2.50;;;;;20.08;69.82;101647.91;5060458;28;45390;-65
2022/05/18 03:46:21;;;;;;;;;5.00;3.25;;;;;20.08;69.90;101658.44;5045426;28;45497;-65
2022/05/18 03:48:46;;;;;;;;;2.00;2.00;;;;;20.00;71.11;101659.69;5046289;28;45715;-65
2022/05/18 03:51:14;;;;;;;;;2.00;1.50;;;;;19.91;70.88;101654.91;5053958;28;48078;-65
2022/05/18 03:53:40;;;;;;;;;5.50;3.25;;;;;19.88;71.36;101662.13;5045191;28;45339;-65
2022/05/18 03:56:07;;;;;;;;;7.25;4.00;;;;;19.84;70.98;101663.22;5045549;28;45694;-65
2022/05/18 03:58:32;;;;;;;;;2.50;2.50;;;;;19.84;70.63;101671.13;5045377;28;45529;-65
2022/05/18 04:01:00;;;;;;;;;3.50;3.25;;;;;19.83;70.26;101680.84;5045173;28;46099;-65
2022/05/18 04:03:28;;;;;;;;;4.00;4.00;;;;;19.80;69.88;101677.47;5045575;28;45355;-66
2022/05/18 04:05:53;;;;;;;;;3.00;3.00;;;;;19.79;69.23;101679.25;5052398;28;45225;-67
2022/05/18 04:08:20;;;;;;;;;1.75;1.50;;;;;19.85;69.04;101686.88;5046264;28;45505;-67
2022/05/18 04:10:46;;;;;;;;;2.25;2.25;;;;;19.82;69.11;101680.88;5051231;28;46667;-66
2022/05/18 04:13:13;;;;;;;;;5.00;4.00;;;;;19.77;69.08;101688.19;5055873;28;45319;-66
2022/05/18 04:15:39;;;;;;;;;4.00;3.50;;;;;19.75;69.52;101688.25;5043677;28;45356;-67
2022/05/18 04:18:05;;;;;;;;;3.00;3.00;;;;;19.71;69.17;101692.84;5040187;28;45352;-67
2022/05/18 04:20:30;;;;;;;;;4.25;3.00;;;;;19.68;69.46;101689.50;5044081;28;46572;-67
2022/05/18 04:22:56;;;;;;;;;3.00;3.00;;;;;19.64;69.27;101695.88;5045351;28;45380;-67
2022/05/18 04:25:25;;;;;;;;;2.75;2.50;;;;;19.64;68.63;101695.88;5058761;28;45325;-67
2022/05/18 04:27:52;;;;;;;;;3.25;2.25;;;;;19.59;68.37;101690.81;5045059;28;45533;-67
2022/05/18 04:30:19;;;;;;;;;2.75;2.75;;;;;19.59;69.52;101692.59;5048381;28;46243;-66
2022/05/18 04:32:45;;;;;;;;;2.75;2.75;;;;;19.61;68.74;101693.38;5047902;28;45417;-67
2022/05/18 04:35:14;;;;;;;;;3.25;3.25;;;;;19.65;67.62;101692.31;5053173;28;45534;-66
2022/05/18 04:37:40;;;;;;;;;4.50;3.25;;;;;19.70;67.97;101687.66;5043341;28;45447;-66
2022/05/18 04:40:07;;;;;;;;;2.75;2.75;;;;;19.77;67.59;101696.09;5037723;28;48275;-65
2022/05/18 04:42:32;;;;;;;;;3.50;3.50;;;;;19.81;67.37;101689.72;5038994;28;46012;-65
2022/05/18 04:44:57;;;;;;;;;2.50;2.50;;;;;19.81;67.06;101695.00;5043625;28;45450;-64
2022/05/18 04:47:24;;;;;;;;;4.25;2.75;;;;;19.77;67.10;101704.00;5040046;28;45298;-63
2022/05/18 04:49:51;;;;;;;;;4.00;3.75;;;;;19.73;67.26;101717.34;5037921;28;46453;-64
2022/05/18 04:52:17;;;;;;;;;1.00;1.00;;;;;19.71;66.55;101719.22;5042546;28;45304;-62
2022/05/18 04:54:43;;;;;;;;;3.50;2.75;;;;;19.73;66.82;101720.00;5042001;28;45171;-62
2022/05/18 04:57:08;;;;;;;;;4.00;2.75;;;;;19.74;66.76;101721.69;5044632;28;45462;-63
2022/05/18 04:59:34;;;;;;;;;3.75;2.50;;;;;19.65;66.83;101726.59;5040727;28;46178;-63
2022/05/18 05:01:59;;;;;;;;;2.75;2.75;;;;;19.69;67.05;101726.34;5038729;28;45381;-62
2022/05/18 05:04:25;;;;;;;;;3.00;3.00;;;;;19.69;66.48;101723.72;5037449;28;45482;-63
2022/05/18 05:06:50;;;;;;;;;4.00;2.75;;;;;19.69;66.69;101718.44;5039282;28;45442;-63
2022/05/18 05:09:15;;;;;;;;;3.25;3.00;;;;;19.66;66.77;101734.44;5038579;28;46152;-63
2022/05/18 05:11:42;;;;;;;;;5.00;3.75;;;;;19.66;66.54;101729.16;5038370;28;45279;-63
2022/05/18 05:14:08;;;;;;;;;3.75;3.75;;;;;19.73;66.63;101733.19;5047677;28;45335;-63
2022/05/18 05:16:33;;;;;;;;;3.75;2.00;;;;;19.80;65.91;101736.34;5040246;28;45268;-63
2022/05/18 05:19:00;;;;;;;;;3.00;2.00;;;;;19.86;65.53;101741.34;5051555;28;45441;-63
2022/05/18 05:21:25;;;;;;;;;4.50;4.00;;;;;19.88;65.37;101736.84;5038758;28;45321;-63
2022/05/18 05:23:51;;;;;;;;;3.25;2.00;;;;;19.95;65.36;101745.28;5051876;28;45574;-63
2022/05/18 05:26:16;;;;;;;;;4.00;3.00;;;;;20.01;65.63;101744.97;5041632;28;45256;-64
2022/05/18 05:28:42;;;;;;;;;3.00;3.00;;;;;20.07;64.83;101755.25;5048092;28;46602;-64
2022/05/18 05:31:10;;;;;;;;;2.25;1.50;;;;;20.12;65.13;101758.50;5045929;28;46010;-63
2022/05/18 05:33:37;;;;;;;;;2.50;1.75;;;;;20.19;64.74;101759.03;5038523;28;45572;-64
2022/05/18 05:36:03;;;;;;;;;3.50;3.00;;;;;20.25;64.20;101766.63;5048048;28;45790;-64
2022/05/18 05:38:29;;;;;;;;;2.00;1.50;;;;;20.30;64.02;101773.38;5045513;28;45557;-65
2022/05/18 05:40:55;;;;;;;;;1.75;1.25;;;;;20.34;63.56;101774.94;5036170;28;45592;-64
2022/05/18 05:43:21;;;;;;;;;4.00;3.75;;;;;20.39;63.65;101776.47;5034042;28;45346;-64
2022/05/18 05:45:57;;;;;;;;;3.25;3.25;;;;;20.48;63.18;101776.88;5047939;28;45421;-64
2022/05/18 05:48:23;;;;;;;;;3.25;2.50;;;;;20.48;63.06;101776.88;5050032;28;47243;-64
2022/05/18 05:50:49;;;;;;;;;4.75;3.25;;;;;20.50;63.12;101774.16;5050146;28;45396;-64
2022/05/18 05:53:14;;;;;;;;;1.00;1.00;;;;;20.55;62.48;101785.34;5041240;28;45383;-64
2022/05/18 05:55:39;;;;;;;;;4.00;1.50;;;;;20.52;62.13;101785.50;5039188;28;45335;-63
2022/05/18 05:58:05;;;;;;;;;2.50;2.00;;;;;20.54;62.54;101784.47;5040286;28;46564;-61
2022/05/18 06:00:30;;;;;;;;;2.50;2.00;;;;;20.62;62.22;101787.59;5038392;28;45169;-61
2022/05/18 06:02:55;;;;;;;;;2.50;2.50;;;;;20.72;61.50;101795.00;5042766;28;45403;-62
2022/05/18 06:05:21;;;;;;;;;3.75;2.75;;;;;20.72;60.80;101789.72;5038355;28;45572;-63
2022/05/18 06:07:46;;;;;;;;;2.00;2.00;;;;;20.73;60.72;101789.66;5042496;28;47085;-61
2022/05/18 06:10:13;;;;;;;;;2.00;2.00;;;;;20.75;59.91;101793.06;5049495;28;45264;-61
2022/05/18 06:12:38;;;;;;;;;3.25;2.00;;;;;20.76;59.70;101791.28;5045865;28;45815;-61
2022/05/18 06:15:06;;;;;;;;;4.00;2.00;;;;;20.81;59.59;101795.38;5046243;28;45517;-63
2022/05/18 06:17:32;;;;;;;;;2.75;1.75;;;;;20.89;59.57;101797.63;5045629;28;47217;-63
2022/05/18 06:19:57;;;;;;;;;2.00;2.00;;;;;20.95;59.36;101797.28;5050253;28;45293;-63
2022/05/18 06:22:22;;;;;;;;;4.75;2.00;;;;;21.02;59.26;101795.16;5050943;28;45220;-63
2022/05/18 06:24:51;;;;;;;;;2.00;2.00;;;;;21.06;59.27;101802.84;5050435;28;45526;-63
2022/05/18 06:27:17;;;;;;;;;1.50;1.50;;;;;21.13;58.61;101806.00;5044203;28;47094;-63
2022/05/18 06:29:42;;;;;;;;;1.00;1.00;;;;;21.16;58.30;101804.03;5046865;28;45249;-62
2022/05/18 06:32:07;;;;;;;;;9.50;8.50;;;;;21.12;57.86;101802.50;5046273;28;45414;-61
2022/05/18 06:34:33;;;;;;;;;1.25;1.25;;;;;21.13;57.73;101801.56;5039535;28;45520;-62
2022/05/18 06:36:58;;;;;;;;;0.25;0.25;;;;;21.13;57.24;101801.56;5045577;28;45422;-61
2022/05/18 06:39:24;;;;;;;;;4.00;4.00;;;;;21.19;57.58;101801.22;5040054;28;45559;-62
2022/05/18 06:41:49;;;;;;;;;2.75;1.75;;;;;21.28;56.83;101797.25;5044488;28;45886;-62
2022/05/18 06:44:15;;;;;;;;;2.50;2.50;;;;;21.29;56.28;101806.06;5046831;28;45503;-62
2022/05/18 06:46:41;;;;;;;;;4.00;2.25;;;;;21.30;57.18;101800.66;5046953;28;46176;-61
2022/05/18 06:49:08;;;;;;;;;3.25;3.25;;;;;21.36;56.76;101799.47;5044708;28;45273;-62
2022/05/18 06:51:40;;;;;;;;;3.25;2.50;;;;;21.47;57.05;101807.66;5044361;28;46695;-62
2022/05/18 06:54:07;;;;;;;;;4.50;3.50;;;;;21.53;56.50;101804.66;5045971;28;45328;-62
2022/05/18 06:56:37;;;;;;;;;5.25;2.50;;;;;21.60;56.86;101806.03;5047513;28;45806;-61
2022/05/18 06:59:04;;;;;;;;;3.75;2.00;;;;;21.73;56.56;101801.75;5050250;28;45362;-62
2022/05/18 07:01:29;;;;;;;;;3.00;3.00;;;;;21.84;56.49;101804.66;5047143;28;45310;-62
2022/05/18 07:03:56;;;;;;;;;2.00;2.00;;;;;21.90;56.07;101803.44;5046842;28;45640;-62
2022/05/18 07:06:25;;;;;;;;;3.50;2.25;;;;;21.92;55.42;101798.03;5047103;28;46554;-61
2022/05/18 07:08:51;;;;;;;;;3.25;2.00;;;;;22.02;55.62;101804.50;5047436;28;45473;-61
2022/05/18 07:11:18;;;;;;;;;3.25;1.75;;;;;22.06;55.52;101800.78;5051313;28;45384;-62
2022/05/18 07:13:46;;;;;;;;;2.25;2.25;;;;;22.08;54.94;101790.94;5047095;28;45358;-62
2022/05/18 07:16:12;;;;;;;;;1.00;0.75;;;;;22.11;54.94;101793.41;5048874;28;45368;-62
2022/05/18 07:18:38;;;;;;;;;1.25;1.25;;;;;22.15;53.93;101798.44;5049752;28;45681;-63
2022/05/18 07:21:05;;;;;;;;;2.00;2.00;;;;;22.19;54.48;101796.44;5051273;28;45251;-63
2022/05/18 07:23:31;;;;;;;;;2.50;2.00;;;;;22.11;54.43;101804.00;5049144;28;45712;-64
2022/05/18 07:25:58;;;;;;;;;4.50;4.00;;;;;22.10;54.99;101789.06;5045891;28;47377;-63
2022/05/18 07:28:24;;;;;;;;;3.75;3.00;;;;;22.13;55.09;101792.38;5042129;28;45566;-63
2022/05/18 07:30:51;;;;;;;;;3.75;2.50;;;;;22.25;55.11;101795.25;5048800;28;45335;-64
2022/05/18 07:33:17;;;;;;;;;4.00;3.00;;;;;22.33;54.84;101800.94;5050406;28;45532;-62
2022/05/18 07:35:43;;;;;;;;;3.75;1.25;;;;;22.40;54.70;101802.25;5046330;28;46156;-62
2022/05/18 07:38:09;;;;;;;;;3.25;3.25;;;;;22.43;54.44;101808.25;5046711;28;45359;-62
2022/05/18 07:40:35;;;;;;;;;3.50;3.50;;;;;22.45;54.56;101802.84;5045755;28;45445;-62
2022/05/18 07:43:01;;;;;;;;;2.75;2.25;;;;;22.54;54.48;101806.72;5048558;28;45480;-62
2022/05/18 07:45:27;;;;;;;;;3.00;3.00;;;;;22.56;54.40;101816.28;5044628;28;47277;-62
2022/05/18 07:47:53;;;;;;;;;2.25;1.50;;;;;22.57;54.19;101807.38;5045748;28;45755;-62
2022/05/18 07:50:24;;;;;;;;;5.25;4.00;;;;;22.65;54.33;101806.94;5047850;28;45901;-62
2022/05/18 07:52:51;;;;;;;;;3.00;3.00;;;;;22.75;54.40;101808.91;5048576;28;45379;-62
2022/05/18 07:55:17;;;;;;;;;3.50;3.50;;;;;22.85;54.13;101800.44;5048611;28;46212;-63
2022/05/18 07:57:43;;;;;;;;;4.75;3.50;;;;;22.97;54.43;101804.97;5047224;28;46326;-63
2022/05/18 08:00:09;;;;;;;;;6.75;2.00;;;;;23.05;53.67;101805.34;5046937;28;45374;-63
2022/05/18 08:02:36;;;;;;;;;5.25;4.00;;;;;23.16;53.73;101807.31;5044262;28;45592;-63
2022/05/18 08:05:02;;;;;;;;;2.00;2.00;;;;;23.26;53.23;101801.34;5064522;28;48428;-62
2022/05/18 08:07:28;;;;;;;;;1.00;1.00;;;;;23.36;53.38;101805.09;5044172;28;45862;-62
2022/05/18 08:15:22;;;;;;;;;2.50;2.50;;;;;23.79;51.90;101799.66;5041245;28;45530;-62
2022/05/18 08:17:48;;;;;;;;;7.50;4.75;;;;;23.91;52.44;101800.66;5043697;28;45767;-61
2022/05/18 08:20:15;;;;;;;;;3.00;2.00;;;;;23.95;51.91;101796.84;5039204;28;45300;-65
2022/05/18 08:22:42;;;;;;;;;1.00;1.00;;;;;24.04;51.30;101790.09;5042994;28;45402;-61
2022/05/18 08:25:09;;;;;;;;;3.00;2.50;;;;;24.16;51.07;101790.09;5043301;28;45485;-64
2022/05/18 08:27:38;;;;;;;;;3.50;2.25;;;;;24.16;50.28;101789.25;5039837;28;45319;-63
2022/05/18 08:30:06;;;;;;;;;4.25;3.25;;;;;24.18;50.97;101787.31;5047042;28;46166;-63
2022/05/18 08:32:32;;;;;;;;;2.00;2.00;;;;;24.22;50.97;101786.16;5052995;28;45459;-63
2022/05/18 08:34:57;;;;;;;;;3.00;3.00;;;;;24.33;50.44;101790.78;5038591;28;46947;-63
2022/05/18 08:37:23;;;;;;;;;3.75;2.50;;;;;24.44;51.30;101794.41;5040070;28;45473;-65
2022/05/18 08:39:50;;;;;;;;;4.00;4.00;;;;;24.55;50.96;101780.38;5048658;28;45732;-67
2022/05/18 08:42:16;;;;;;;;;3.00;3.00;;;;;24.61;50.39;101779.09;5041849;28;45579;-63
2022/05/18 08:44:41;;;;;;;;;2.25;2.25;;;;;24.69;50.93;101782.06;5042687;28;46130;-65
2022/05/18 08:47:32;;;;;;;;;4.00;4.00;;;;;24.65;50.38;101786.75;5039414;28;45478;-64
2022/05/18 08:50:01;;;;;;;;;3.00;3.00;;;;;24.61;50.62;101790.56;5035124;28;46216;-64
2022/05/18 08:52:38;;;;;;;;;3.00;3.00;;;;;24.69;50.26;101784.72;5041781;28;45457;-63
2022/05/18 08:55:36;;;;;;;;;6.00;4.00;;;;;24.75;50.47;101785.13;5044863;28;48209;-63
2022/05/18 08:58:02;;;;;;;;;2.50;2.50;;;;;24.83;50.53;101785.47;5038240;28;45384;-62
2022/05/18 09:00:38;;;;;;;;;3.75;3.00;;;;;24.92;50.06;101780.44;5048758;28;45287;-63
2022/05/18 09:03:09;;;;;;;;;4.00;4.00;;;;;25.03;50.22;101773.44;5043355;28;45432;-62
2022/05/18 09:05:53;;;;;;;;;6.00;4.25;;;;;25.22;50.00;101775.59;5054403;28;45589;-62
2022/05/18 09:08:25;;;;;;;;;5.75;5.00;;;;;25.38;49.68;101775.31;5038911;28;45169;-61
2022/05/18 09:10:53;;;;;;;;;7.50;5.25;;;;;25.57;49.28;101777.47;5037906;28;47075;-63
2022/05/18 09:13:20;;;;;;;;;2.25;2.25;;;;;25.58;48.37;101773.84;5047841;28;45620;-63
2022/05/18 09:16:10;;;;;;;;;3.25;3.25;;;;;25.46;48.93;101770.31;5048137;28;46365;-63
2022/05/18 09:18:41;;;;;;;;;3.75;3.75;;;;;25.41;48.44;101767.13;5046491;28;45324;-63
2022/05/18 09:21:15;;;;;;;;;3.50;3.50;;;;;25.27;48.44;101773.47;5043640;28;45383;-63
2022/05/18 09:24:07;;;;;;;;;0.50;0.50;;;;;25.24;48.74;101770.19;5045737;28;45384;-63
2022/05/18 09:27:00;;;;;;;;;3.75;3.75;;;;;25.32;48.95;101773.13;5047560;28;45530;-63
2022/05/18 09:29:38;;;;;;;;;5.50;3.75;;;;;25.42;49.10;101767.00;5047694;28;45518;-62
2022/05/18 09:32:09;;;;;;;;;6.50;3.75;;;;;25.54;48.89;101759.94;5048020;28;45327;-62
2022/05/18 09:34:53;;;;;;;;;4.00;3.00;;;;;25.63;49.01;101763.72;5043710;28;45480;-62
2022/05/18 09:37:27;;;;;;;;;4.75;4.75;;;;;25.71;48.81;101762.22;5045059;28;45498;-62
2022/05/18 09:40:21;;;;;;;;;4.00;4.00;;;;;25.72;48.13;101755.94;5050903;28;45308;-62
2022/05/18 09:42:58;;;;;;;;;6.00;4.00;;;;;25.72;48.95;101758.59;5037925;28;45444;-62
2022/05/18 09:45:29;;;;;;;;;4.25;4.25;;;;;25.80;48.54;101752.69;5046195;28;45607;-63
2022/05/18 09:48:01;;;;;;;;;5.00;5.00;;;;;25.90;48.25;101760.84;5059178;28;47938;-66
2022/05/18 09:50:27;;;;;;;;;7.00;6.50;;;;;26.03;48.19;101753.63;5042964;28;45652;-66
2022/05/18 09:52:54;;;;;;;;;5.00;5.00;;;;;26.19;48.54;101753.25;5033765;28;45601;-66
2022/05/18 09:55:23;;;;;;;;;5.75;3.50;;;;;26.37;48.14;101743.88;5039215;28;45858;-66
2022/05/18 09:58:01;;;;;;;;;3.00;3.00;;;;;26.52;47.01;101752.50;5045701;28;46466;-67
2022/05/18 10:00:29;;;;;;;;;5.75;5.75;;;;;26.63;47.34;101749.81;5049626;28;45272;-66
2022/05/18 10:08:56;;;;;;;;;4.00;3.00;;;;;26.93;46.67;101742.03;5043921;28;45223;-76
2022/05/18 10:11:29;;;;;;;;;2.50;2.50;;;;;26.92;46.21;101735.00;5041285;28;45279;-71
2022/05/18 10:14:16;;;;;;;;;5.25;3.00;;;;;26.93;45.75;101735.88;5035481;28;45449;-67
2022/05/18 10:17:19;;;;;;;;;3.75;3.75;;;;;26.97;45.59;101738.16;5033541;28;45533;-67
2022/05/18 10:19:50;;;;;;;;;4.50;4.50;;;;;27.05;45.36;101734.91;4996631;28;46325;-67
2022/05/18 10:22:23;;;;;;;;;6.25;4.75;;;;;27.11;45.37;101736.22;5031103;28;45412;-67
2022/05/18 10:24:57;;;;;;;;;2.50;2.50;;;;;27.25;45.42;101722.63;5043141;28;45707;-65
2022/05/18 10:27:29;;;;;;;;;5.00;3.25;;;;;27.28;44.88;101725.88;5037541;28;45265;-66
2022/05/18 10:30:09;;;;;;;;;9.75;6.50;;;;;27.33;45.50;101716.63;5025455;28;45384;-66
2022/05/18 10:32:51;;;;;;;;;4.00;3.00;;;;;27.33;44.85;101709.47;5038183;28;45354;-66
2022/05/18 10:35:50;;;;;;;;;3.00;3.00;;;;;27.23;44.02;101708.50;5041721;28;45384;-65
2022/05/18 10:38:20;;;;;;;;;5.00;3.00;;;;;27.23;44.46;101712.06;5037032;28;45584;-66
2022/05/18 10:40:46;;;;;;;;;4.75;4.00;;;;;27.32;44.46;101710.44;5039201;28;45412;-65
2022/05/18 10:43:42;;;;;;;;;1.75;1.00;;;;;27.26;44.40;101701.13;5040495;28;45247;-69
2022/05/18 10:46:37;;;;;;;;;3.50;3.50;;;;;27.20;44.62;101695.44;5039448;28;45404;-68
2022/05/18 10:49:07;;;;;;;;;3.00;3.00;;;;;27.20;43.69;101690.09;5040260;28;45762;-67
2022/05/18 10:51:38;;;;;;;;;4.75;2.75;;;;;27.10;44.29;101674.00;5035920;28;45659;-68
2022/05/18 10:54:31;;;;;;;;;3.00;3.00;;;;;27.08;44.63;101691.13;5046550;28;45288;-68
2022/05/18 10:57:18;;;;;;;;;3.00;3.00;;;;;27.12;44.76;101681.88;5036764;28;46031;-68
2022/05/18 10:59:50;;;;;;;;;4.50;4.50;;;;;27.24;44.66;101681.72;5032744;28;45217;-66
2022/05/18 11:02:33;;;;;;;;;2.25;2.25;;;;;27.38;44.47;101677.88;5028221;28;47143;-68
2022/05/18 11:05:23;;;;;;;;;5.00;4.00;;;;;27.52;44.38;101674.91;5035430;28;45311;-65
2022/05/18 11:07:49;;;;;;;;;2.00;2.00;;;;;27.49;43.35;101680.53;5045515;28;45391;-71
2022/05/18 11:10:14;;;;;;;;;3.00;3.00;;;;;27.46;43.03;101671.94;5040078;28;45563;-70
2022/05/18 11:12:40;;;;;;;;;2.00;2.00;;;;;27.54;42.65;101670.28;5041061;28;45380;-69
2022/05/18 11:15:12;;;;;;;;;2.75;2.75;;;;;27.57;42.63;101662.00;5038362;28;45447;-67
2022/05/18 11:18:15;;;;;;;;;3.25;3.00;;;;;27.68;42.17;101677.19;5038938;28;45424;-67
2022/05/18 11:20:59;;;;;;;;;3.00;3.00;;;;;27.73;41.49;101674.09;5040223;28;45241;-66
2022/05/18 11:23:31;;;;;;;;;6.75;4.00;;;;;27.86;41.67;101685.47;5031983;28;46477;-67
2022/05/18 11:25:59;;;;;;;;;3.25;3.25;;;;;27.96;42.33;101683.66;5039914;28;45551;-70
2022/05/18 11:28:44;;;;;;;;;4.00;2.00;;;;;28.07;41.70;101675.59;5039591;28;45225;-71
2022/05/18 11:31:40;;;;;;;;;4.50;3.00;;;;;28.16;41.38;101679.28;5040566;28;45260;-64
2022/05/18 11:34:21;;;;;;;;;3.00;3.00;;;;;28.10;41.89;101675.31;5040808;28;45553;-67
2022/05/18 11:37:06;;;;;;;;;3.75;3.75;;;;;28.07;41.96;101670.25;5036055;28;45308;-67
2022/05/18 11:40:09;;;;;;;;;3.75;3.00;;;;;28.16;41.78;101666.75;5039943;28;46612;-67
2022/05/18 11:42:50;;;;;;;;;4.00;3.50;;;;;28.21;41.96;101666.34;5039193;28;45289;-67
2022/05/18 11:45:36;;;;;;;;;3.75;2.75;;;;;28.24;41.19;101662.59;5042557;28;45619;-66
2022/05/18 11:48:27;;;;;;;;;3.50;2.25;;;;;28.32;40.97;101652.94;5033193;28;45612;-67
2022/05/18 11:51:19;;;;;;;;;3.50;3.50;;;;;28.44;40.58;101651.03;5039116;28;45360;-67
2022/05/18 11:53:50;;;;;;;;;2.00;1.00;;;;;28.50;40.41;101654.97;5042532;28;45454;-65